sensor_id;sensor_type;location;lat;lon;timestamp;temperature;humidity
53053;DHT22;38934;52.690;6.184;2023-03-14T00:00:55;11.00;99.90
53053;DHT22;38934;52.690;6.184;2023-03-14T00:03:21;10.10;99.90
53053;DHT22;38934;52.690;6.184;2023-03-14T00:05:46;10.10;99.90
53053;DHT22;38934;52.690;6.184;2023-03-14T00:08:12;10.10;99.90
53053;DHT22;38934;52.690;6.184;2023-03-14T00:10:38;10.60;99.90
53053;DHT22;38934;52.690;6.184;2023-03-14T00:13:03;10.10;99.90
53053;DHT22;38934;52.690;6.184;2023-03-14T00:15:29;10.10;99.90
53053;DHT22;38934;52.690;6.184;2023-03-14T00:17:55;10.20;99.90
53053;DHT22;38934;52.690;6.184;2023-03-14T00:20:20;10.20;99.90
53053;DHT22;38934;52.690;6.184;2023-03-14T00:22:46;10.20;99.90
53053;DHT22;38934;52.690;6.184;2023-03-14T00:25:12;10.30;99.90
53053;DHT22;38934;52.690;6.184;2023-03-14T00:27:38;10.30;99.90
53053;DHT22;38934;52.690;6.184;2023-03-14T00:30:05;10.40;99.90
53053;DHT22;38934;52.690;6.184;2023-03-14T00:32:31;10.40;99.90
53053;DHT22;38934;52.690;6.184;2023-03-14T00:34:56;10.40;99.90
53053;DHT22;38934;52.690;6.184;2023-03-14T00:37:22;10.40;99.90
53053;DHT22;38934;52.690;6.184;2023-03-14T00:39:48;10.30;99.90
53053;DHT22;38934;52.690;6.184;2023-03-14T00:42:13;10.40;99.90
53053;DHT22;38934;52.690;6.184;2023-03-14T00:44:39;10.30;99.90
53053;DHT22;38934;52.690;6.184;2023-03-14T00:47:05;10.30;99.90
53053;DHT22;38934;52.690;6.184;2023-03-14T00:49:30;10.30;99.90
53053;DHT22;38934;52.690;6.184;2023-03-14T00:51:56;10.20;99.90
53053;DHT22;38934;52.690;6.184;2023-03-14T00:54:22;10.20;99.90
53053;DHT22;38934;52.690;6.184;2023-03-14T00:56:48;10.20;99.90
53053;DHT22;38934;52.690;6.184;2023-03-14T00:59:13;10.20;99.90
53053;DHT22;38934;52.690;6.184;2023-03-14T01:01:40;10.20;99.90
53053;DHT22;38934;52.690;6.184;2023-03-14T01:04:07;10.20;99.90
53053;DHT22;38934;52.690;6.184;2023-03-14T01:06:33;10.10;99.90
53053;DHT22;38934;52.690;6.184;2023-03-14T01:08:59;10.20;99.90
53053;DHT22;38934;52.690;6.184;2023-03-14T01:11:27;10.10;99.90
53053;DHT22;38934;52.690;6.184;2023-03-14T01:13:54;10.10;99.90
53053;DHT22;38934;52.690;6.184;2023-03-14T01:16:22;10.90;99.90
53053;DHT22;38934;52.690;6.184;2023-03-14T01:18:47;10.80;99.90
53053;DHT22;38934;52.690;6.184;2023-03-14T01:21:16;9.90;99.90
53053;DHT22;38934;52.690;6.184;2023-03-14T01:23:43;10.30;99.90
53053;DHT22;38934;52.690;6.184;2023-03-14T01:26:10;10.50;99.90
53053;DHT22;38934;52.690;6.184;2023-03-14T01:28:36;9.70;99.90
53053;DHT22;38934;52.690;6.184;2023-03-14T01:31:06;9.70;99.90
53053;DHT22;38934;52.690;6.184;2023-03-14T01:33:32;9.60;99.90
53053;DHT22;38934;52.690;6.184;2023-03-14T01:35:58;9.80;99.90
53053;DHT22;38934;52.690;6.184;2023-03-14T01:38:24;9.60;99.90
53053;DHT22;38934;52.690;6.184;2023-03-14T01:40:49;9.60;99.90
53053;DHT22;38934;52.690;6.184;2023-03-14T01:43:19;9.60;99.90
53053;DHT22;38934;52.690;6.184;2023-03-14T01:49:13;9.60;99.90
53053;DHT22;38934;52.690;6.184;2023-03-14T01:51:59;9.60;99.90
53053;DHT22;38934;52.690;6.184;2023-03-14T01:59:35;9.60;99.90
53053;DHT22;38934;52.690;6.184;2023-03-14T02:02:04;9.60;99.90
53053;DHT22;38934;52.690;6.184;2023-03-14T02:04:34;9.60;99.90
53053;DHT22;38934;52.690;6.184;2023-03-14T02:07:12;9.60;99.90
53053;DHT22;38934;52.690;6.184;2023-03-14T02:09:39;9.60;99.90
53053;DHT22;38934;52.690;6.184;2023-03-14T02:12:07;10.00;99.90
53053;DHT22;38934;52.690;6.184;2023-03-14T02:14:35;9.70;99.90
53053;DHT22;38934;52.690;6.184;2023-03-14T02:17:03;10.40;99.90
53053;DHT22;38934;52.690;6.184;2023-03-14T02:22:10;9.70;99.90
53053;DHT22;38934;52.690;6.184;2023-03-14T02:24:46;9.60;99.90
53053;DHT22;38934;52.690;6.184;2023-03-14T02:27:18;9.60;99.90
53053;DHT22;38934;52.690;6.184;2023-03-14T02:29:54;9.60;99.90
53053;DHT22;38934;52.690;6.184;2023-03-14T02:32:22;9.50;99.90
53053;DHT22;38934;52.690;6.184;2023-03-14T02:34:52;9.50;99.90
53053;DHT22;38934;52.690;6.184;2023-03-14T02:37:20;9.50;99.90
53053;DHT22;38934;52.690;6.184;2023-03-14T02:39:47;9.60;99.90
53053;DHT22;38934;52.690;6.184;2023-03-14T02:42:15;9.40;99.90
53053;DHT22;38934;52.690;6.184;2023-03-14T02:45:01;9.30;99.90
53053;DHT22;38934;52.690;6.184;2023-03-14T02:47:58;9.30;99.90
53053;DHT22;38934;52.690;6.184;2023-03-14T02:50:29;9.20;99.90
53053;DHT22;38934;52.690;6.184;2023-03-14T02:52:56;9.50;99.90
53053;DHT22;38934;52.690;6.184;2023-03-14T02:55:22;9.20;99.90
53053;DHT22;38934;52.690;6.184;2023-03-14T02:57:48;9.20;99.90
53053;DHT22;38934;52.690;6.184;2023-03-14T03:00:14;10.10;99.90
53053;DHT22;38934;52.690;6.184;2023-03-14T03:02:40;9.10;99.90
53053;DHT22;38934;52.690;6.184;2023-03-14T03:05:06;9.40;99.90
53053;DHT22;38934;52.690;6.184;2023-03-14T03:07:31;9.00;99.90
53053;DHT22;38934;52.690;6.184;2023-03-14T03:09:57;9.90;99.90
53053;DHT22;38934;52.690;6.184;2023-03-14T03:12:23;9.00;99.90
53053;DHT22;38934;52.690;6.184;2023-03-14T03:14:48;9.00;99.90
53053;DHT22;38934;52.690;6.184;2023-03-14T03:17:14;9.00;99.90
53053;DHT22;38934;52.690;6.184;2023-03-14T03:19:39;9.00;99.90
53053;DHT22;38934;52.690;6.184;2023-03-14T03:22:05;9.00;99.90
53053;DHT22;38934;52.690;6.184;2023-03-14T03:24:30;9.00;99.90
53053;DHT22;38934;52.690;6.184;2023-03-14T03:26:56;9.00;99.90
53053;DHT22;38934;52.690;6.184;2023-03-14T03:29:21;9.00;99.90
53053;DHT22;38934;52.690;6.184;2023-03-14T03:31:47;9.00;99.90
53053;DHT22;38934;52.690;6.184;2023-03-14T03:34:14;9.70;99.90
53053;DHT22;38934;52.690;6.184;2023-03-14T03:36:40;9.00;99.90
53053;DHT22;38934;52.690;6.184;2023-03-14T03:39:05;8.90;99.90
53053;DHT22;38934;52.690;6.184;2023-03-14T03:41:31;8.90;99.90
53053;DHT22;38934;52.690;6.184;2023-03-14T03:43:57;8.90;99.90
53053;DHT22;38934;52.690;6.184;2023-03-14T03:46:23;8.90;99.90
53053;DHT22;38934;52.690;6.184;2023-03-14T03:48:54;8.90;99.90
53053;DHT22;38934;52.690;6.184;2023-03-14T03:51:20;8.90;99.90
53053;DHT22;38934;52.690;6.184;2023-03-14T03:53:45;8.90;99.90
53053;DHT22;38934;52.690;6.184;2023-03-14T03:56:11;8.90;99.90
53053;DHT22;38934;52.690;6.184;2023-03-14T03:58:37;8.90;99.90
53053;DHT22;38934;52.690;6.184;2023-03-14T04:01:05;9.50;99.90
53053;DHT22;38934;52.690;6.184;2023-03-14T04:03:32;8.90;99.90
53053;DHT22;38934;52.690;6.184;2023-03-14T04:06:02;9.40;99.90
53053;DHT22;38934;52.690;6.184;2023-03-14T04:08:29;8.80;99.90
53053;DHT22;38934;52.690;6.184;2023-03-14T04:10:57;8.80;99.90
53053;DHT22;38934;52.690;6.184;2023-03-14T04:13:23;8.80;99.90
53053;DHT22;38934;52.690;6.184;2023-03-14T04:15:48;8.80;99.90
53053;DHT22;38934;52.690;6.184;2023-03-14T04:18:14;8.80;99.90
53053;DHT22;38934;52.690;6.184;2023-03-14T04:20:40;8.80;99.90
53053;DHT22;38934;52.690;6.184;2023-03-14T04:23:05;8.80;99.90
53053;DHT22;38934;52.690;6.184;2023-03-14T04:25:31;8.70;99.90
53053;DHT22;38934;52.690;6.184;2023-03-14T04:27:56;9.10;99.90
53053;DHT22;38934;52.690;6.184;2023-03-14T04:30:22;9.50;99.90
53053;DHT22;38934;52.690;6.184;2023-03-14T04:32:48;8.70;99.90
53053;DHT22;38934;52.690;6.184;2023-03-14T04:35:13;8.70;99.90
53053;DHT22;38934;52.690;6.184;2023-03-14T04:37:39;8.70;99.90
53053;DHT22;38934;52.690;6.184;2023-03-14T04:40:05;8.70;99.90
53053;DHT22;38934;52.690;6.184;2023-03-14T04:42:32;8.70;99.90
53053;DHT22;38934;52.690;6.184;2023-03-14T04:44:57;8.70;99.90
53053;DHT22;38934;52.690;6.184;2023-03-14T04:47:23;8.70;99.90
53053;DHT22;38934;52.690;6.184;2023-03-14T04:49:49;8.70;99.90
53053;DHT22;38934;52.690;6.184;2023-03-14T04:52:14;9.10;99.90
53053;DHT22;38934;52.690;6.184;2023-03-14T04:54:40;8.80;99.90
53053;DHT22;38934;52.690;6.184;2023-03-14T04:57:06;8.80;99.90
53053;DHT22;38934;52.690;6.184;2023-03-14T04:59:31;8.90;99.90
53053;DHT22;38934;52.690;6.184;2023-03-14T05:01:57;8.90;99.90
53053;DHT22;38934;52.690;6.184;2023-03-14T05:04:22;8.90;99.90
53053;DHT22;38934;52.690;6.184;2023-03-14T05:06:48;8.90;99.90
53053;DHT22;38934;52.690;6.184;2023-03-14T05:09:14;8.90;99.90
53053;DHT22;38934;52.690;6.184;2023-03-14T05:11:40;8.90;99.90
53053;DHT22;38934;52.690;6.184;2023-03-14T05:14:06;8.90;99.90
53053;DHT22;38934;52.690;6.184;2023-03-14T05:16:31;9.40;99.90
53053;DHT22;38934;52.690;6.184;2023-03-14T05:18:57;8.90;99.90
53053;DHT22;38934;52.690;6.184;2023-03-14T05:21:23;8.90;99.90
53053;DHT22;38934;52.690;6.184;2023-03-14T05:23:48;8.90;99.90
53053;DHT22;38934;52.690;6.184;2023-03-14T05:26:14;8.90;99.90
53053;DHT22;38934;52.690;6.184;2023-03-14T05:28:42;8.90;99.90
53053;DHT22;38934;52.690;6.184;2023-03-14T05:31:08;9.10;99.90
53053;DHT22;38934;52.690;6.184;2023-03-14T05:33:34;9.10;99.90
53053;DHT22;38934;52.690;6.184;2023-03-14T05:35:59;8.80;99.90
53053;DHT22;38934;52.690;6.184;2023-03-14T05:38:25;8.90;99.90
53053;DHT22;38934;52.690;6.184;2023-03-14T05:40:51;8.80;99.90
53053;DHT22;38934;52.690;6.184;2023-03-14T05:43:16;8.80;99.90
53053;DHT22;38934;52.690;6.184;2023-03-14T05:45:42;8.80;99.90
53053;DHT22;38934;52.690;6.184;2023-03-14T05:48:09;8.70;99.90
53053;DHT22;38934;52.690;6.184;2023-03-14T05:50:35;8.70;99.90
53053;DHT22;38934;52.690;6.184;2023-03-14T05:53:00;9.20;99.90
53053;DHT22;38934;52.690;6.184;2023-03-14T05:55:26;8.70;99.90
53053;DHT22;38934;52.690;6.184;2023-03-14T05:57:53;9.10;99.90
53053;DHT22;38934;52.690;6.184;2023-03-14T06:00:19;8.70;99.90
53053;DHT22;38934;52.690;6.184;2023-03-14T06:02:45;8.70;99.90
53053;DHT22;38934;52.690;6.184;2023-03-14T06:05:11;8.70;99.90
53053;DHT22;38934;52.690;6.184;2023-03-14T06:07:36;8.70;99.90
53053;DHT22;38934;52.690;6.184;2023-03-14T06:10:02;8.70;99.90
53053;DHT22;38934;52.690;6.184;2023-03-14T06:12:28;8.60;99.90
53053;DHT22;38934;52.690;6.184;2023-03-14T06:14:53;8.60;99.90
53053;DHT22;38934;52.690;6.184;2023-03-14T06:17:19;8.60;99.90
53053;DHT22;38934;52.690;6.184;2023-03-14T06:19:44;8.60;99.90
53053;DHT22;38934;52.690;6.184;2023-03-14T06:22:10;8.60;99.90
53053;DHT22;38934;52.690;6.184;2023-03-14T06:24:36;8.60;99.90
53053;DHT22;38934;52.690;6.184;2023-03-14T06:27:01;8.60;99.90
53053;DHT22;38934;52.690;6.184;2023-03-14T06:29:29;8.60;99.90
53053;DHT22;38934;52.690;6.184;2023-03-14T06:31:55;8.60;99.90
53053;DHT22;38934;52.690;6.184;2023-03-14T06:34:20;8.60;99.90
53053;DHT22;38934;52.690;6.184;2023-03-14T06:36:46;8.60;99.90
53053;DHT22;38934;52.690;6.184;2023-03-14T06:39:12;8.80;99.90
53053;DHT22;38934;52.690;6.184;2023-03-14T06:41:37;8.60;99.90
53053;DHT22;38934;52.690;6.184;2023-03-14T06:44:03;8.60;99.90
53053;DHT22;38934;52.690;6.184;2023-03-14T06:46:29;8.60;99.90
53053;DHT22;38934;52.690;6.184;2023-03-14T06:48:54;8.60;99.90
53053;DHT22;38934;52.690;6.184;2023-03-14T06:51:20;8.60;99.90
53053;DHT22;38934;52.690;6.184;2023-03-14T06:53:45;8.70;99.90
53053;DHT22;38934;52.690;6.184;2023-03-14T06:56:11;8.50;99.90
53053;DHT22;38934;52.690;6.184;2023-03-14T06:58:37;8.50;99.90
53053;DHT22;38934;52.690;6.184;2023-03-14T07:01:02;8.80;99.90
53053;DHT22;38934;52.690;6.184;2023-03-14T07:03:28;8.40;99.90
53053;DHT22;38934;52.690;6.184;2023-03-14T07:05:54;8.30;99.90
53053;DHT22;38934;52.690;6.184;2023-03-14T07:08:20;8.30;99.90
53053;DHT22;38934;52.690;6.184;2023-03-14T07:10:45;8.20;99.90
53053;DHT22;38934;52.690;6.184;2023-03-14T07:13:11;8.10;99.90
53053;DHT22;38934;52.690;6.184;2023-03-14T07:15:36;8.00;99.90
53053;DHT22;38934;52.690;6.184;2023-03-14T07:18:02;7.90;99.90
53053;DHT22;38934;52.690;6.184;2023-03-14T07:20:28;7.80;99.90
53053;DHT22;38934;52.690;6.184;2023-03-14T07:22:55;7.70;99.90
53053;DHT22;38934;52.690;6.184;2023-03-14T07:25:20;7.50;99.90
53053;DHT22;38934;52.690;6.184;2023-03-14T07:27:47;7.40;99.90
53053;DHT22;38934;52.690;6.184;2023-03-14T07:30:15;7.20;99.90
53053;DHT22;38934;52.690;6.184;2023-03-14T07:32:41;7.10;99.90
53053;DHT22;38934;52.690;6.184;2023-03-14T07:35:07;6.90;99.90
53053;DHT22;38934;52.690;6.184;2023-03-14T07:37:33;6.80;99.90
53053;DHT22;38934;52.690;6.184;2023-03-14T07:39:58;6.60;99.90
53053;DHT22;38934;52.690;6.184;2023-03-14T07:42:24;6.60;99.90
53053;DHT22;38934;52.690;6.184;2023-03-14T07:44:50;6.40;99.90
53053;DHT22;38934;52.690;6.184;2023-03-14T07:47:15;6.30;99.90
53053;DHT22;38934;52.690;6.184;2023-03-14T07:49:41;6.20;99.90
53053;DHT22;38934;52.690;6.184;2023-03-14T07:52:06;6.10;99.90
53053;DHT22;38934;52.690;6.184;2023-03-14T07:54:32;6.00;99.90
53053;DHT22;38934;52.690;6.184;2023-03-14T07:56:58;5.90;99.90
53053;DHT22;38934;52.690;6.184;2023-03-14T07:59:27;5.90;99.90
53053;DHT22;38934;52.690;6.184;2023-03-14T08:01:53;5.80;99.90
53053;DHT22;38934;52.690;6.184;2023-03-14T08:04:18;5.70;99.90
53053;DHT22;38934;52.690;6.184;2023-03-14T08:06:44;5.60;99.90
53053;DHT22;38934;52.690;6.184;2023-03-14T08:09:10;5.50;99.90
53053;DHT22;38934;52.690;6.184;2023-03-14T08:11:36;5.50;99.90
53053;DHT22;38934;52.690;6.184;2023-03-14T08:14:01;5.40;99.90
53053;DHT22;38934;52.690;6.184;2023-03-14T08:16:27;5.40;99.90
53053;DHT22;38934;52.690;6.184;2023-03-14T08:18:52;5.30;99.90
53053;DHT22;38934;52.690;6.184;2023-03-14T08:21:18;5.30;99.90
53053;DHT22;38934;52.690;6.184;2023-03-14T08:23:44;5.30;99.90
53053;DHT22;38934;52.690;6.184;2023-03-14T08:26:10;5.30;99.90
53053;DHT22;38934;52.690;6.184;2023-03-14T08:28:36;5.30;99.90
53053;DHT22;38934;52.690;6.184;2023-03-14T08:31:02;5.40;99.90
53053;DHT22;38934;52.690;6.184;2023-03-14T08:33:29;5.40;99.90
53053;DHT22;38934;52.690;6.184;2023-03-14T08:35:56;5.40;99.90
53053;DHT22;38934;52.690;6.184;2023-03-14T08:38:22;5.40;99.90
53053;DHT22;38934;52.690;6.184;2023-03-14T08:40:47;5.50;99.90
53053;DHT22;38934;52.690;6.184;2023-03-14T08:43:14;5.40;99.90
53053;DHT22;38934;52.690;6.184;2023-03-14T08:45:40;5.50;99.90
53053;DHT22;38934;52.690;6.184;2023-03-14T08:48:05;5.40;99.90
53053;DHT22;38934;52.690;6.184;2023-03-14T08:50:31;5.90;99.90
53053;DHT22;38934;52.690;6.184;2023-03-14T08:52:57;5.50;99.90
53053;DHT22;38934;52.690;6.184;2023-03-14T08:55:27;5.50;99.90
53053;DHT22;38934;52.690;6.184;2023-03-14T08:57:53;5.70;99.90
53053;DHT22;38934;52.690;6.184;2023-03-14T09:00:19;5.70;99.90
53053;DHT22;38934;52.690;6.184;2023-03-14T09:02:45;5.80;99.90
53053;DHT22;38934;52.690;6.184;2023-03-14T09:05:11;6.40;99.90
53053;DHT22;38934;52.690;6.184;2023-03-14T09:07:37;6.00;99.90
53053;DHT22;38934;52.690;6.184;2023-03-14T09:10:03;6.00;99.90
53053;DHT22;38934;52.690;6.184;2023-03-14T09:12:29;6.00;99.90
53053;DHT22;38934;52.690;6.184;2023-03-14T09:14:54;6.20;99.90
53053;DHT22;38934;52.690;6.184;2023-03-14T09:17:20;6.30;99.90
53053;DHT22;38934;52.690;6.184;2023-03-14T09:19:46;6.30;99.90
53053;DHT22;38934;52.690;6.184;2023-03-14T09:22:11;6.30;99.90
53053;DHT22;38934;52.690;6.184;2023-03-14T09:24:37;6.30;99.90
53053;DHT22;38934;52.690;6.184;2023-03-14T09:27:02;6.40;99.90
53053;DHT22;38934;52.690;6.184;2023-03-14T09:29:28;6.50;99.90
53053;DHT22;38934;52.690;6.184;2023-03-14T09:31:53;6.60;99.90
53053;DHT22;38934;52.690;6.184;2023-03-14T09:34:19;6.60;99.90
53053;DHT22;38934;52.690;6.184;2023-03-14T09:36:45;6.70;99.90
53053;DHT22;38934;52.690;6.184;2023-03-14T09:39:11;6.70;99.90
53053;DHT22;38934;52.690;6.184;2023-03-14T09:41:41;6.80;99.90
53053;DHT22;38934;52.690;6.184;2023-03-14T09:44:18;6.70;99.90
53053;DHT22;38934;52.690;6.184;2023-03-14T09:46:48;6.80;99.90
53053;DHT22;38934;52.690;6.184;2023-03-14T09:49:30;6.70;99.90
53053;DHT22;38934;52.690;6.184;2023-03-14T09:51:59;6.60;99.90
53053;DHT22;38934;52.690;6.184;2023-03-14T09:54:47;6.60;99.90
53053;DHT22;38934;52.690;6.184;2023-03-14T09:57:23;6.60;99.90
53053;DHT22;38934;52.690;6.184;2023-03-14T09:59:50;6.40;99.90
53053;DHT22;38934;52.690;6.184;2023-03-14T10:02:19;6.40;99.90
53053;DHT22;38934;52.690;6.184;2023-03-14T10:04:49;6.30;99.90
53053;DHT22;38934;52.690;6.184;2023-03-14T10:07:17;6.40;99.90
53053;DHT22;38934;52.690;6.184;2023-03-14T10:09:47;6.30;99.90
53053;DHT22;38934;52.690;6.184;2023-03-14T10:12:13;6.30;99.90
53053;DHT22;38934;52.690;6.184;2023-03-14T10:14:47;6.40;99.90
53053;DHT22;38934;52.690;6.184;2023-03-14T10:17:14;6.50;99.90
53053;DHT22;38934;52.690;6.184;2023-03-14T10:19:52;6.60;99.90
53053;DHT22;38934;52.690;6.184;2023-03-14T10:22:19;6.70;99.90
53053;DHT22;38934;52.690;6.184;2023-03-14T10:24:49;6.90;99.90
53053;DHT22;38934;52.690;6.184;2023-03-14T10:27:22;7.00;99.90
53053;DHT22;38934;52.690;6.184;2023-03-14T10:32:23;6.90;99.90
53053;DHT22;38934;52.690;6.184;2023-03-14T10:35:25;6.80;99.90
53053;DHT22;38934;52.690;6.184;2023-03-14T10:37:55;6.80;99.90
53053;DHT22;38934;52.690;6.184;2023-03-14T10:40:26;6.80;99.90
53053;DHT22;38934;52.690;6.184;2023-03-14T10:42:52;6.90;99.90
53053;DHT22;38934;52.690;6.184;2023-03-14T10:45:37;7.00;99.90
53053;DHT22;38934;52.690;6.184;2023-03-14T10:48:18;7.00;99.90
53053;DHT22;38934;52.690;6.184;2023-03-14T10:53:21;7.20;99.90
53053;DHT22;38934;52.690;6.184;2023-03-14T10:55:47;7.30;99.90
53053;DHT22;38934;52.690;6.184;2023-03-14T10:58:28;7.30;99.90
53053;DHT22;38934;52.690;6.184;2023-03-14T11:03:31;7.40;99.90
53053;DHT22;38934;52.690;6.184;2023-03-14T11:06:16;7.40;99.90
53053;DHT22;38934;52.690;6.184;2023-03-14T11:11:32;6.80;99.90
53053;DHT22;38934;52.690;6.184;2023-03-14T11:14:22;7.30;99.90
53053;DHT22;38934;52.690;6.184;2023-03-14T11:17:02;7.30;99.90
53053;DHT22;38934;52.690;6.184;2023-03-14T11:22:51;7.40;99.90
53053;DHT22;38934;52.690;6.184;2023-03-14T11:25:34;7.40;99.90
53053;DHT22;38934;52.690;6.184;2023-03-14T11:36:22;7.10;99.90
53053;DHT22;38934;52.690;6.184;2023-03-14T11:38:53;7.00;99.90
53053;DHT22;38934;52.690;6.184;2023-03-14T11:43:57;6.90;99.90
53053;DHT22;38934;52.690;6.184;2023-03-14T11:46:43;7.00;99.90
53053;DHT22;38934;52.690;6.184;2023-03-14T11:49:32;7.00;99.90
53053;DHT22;38934;52.690;6.184;2023-03-14T11:51:57;7.20;99.90
53053;DHT22;38934;52.690;6.184;2023-03-14T11:57:16;7.40;99.90
53053;DHT22;38934;52.690;6.184;2023-03-14T12:00:03;7.40;99.90
53053;DHT22;38934;52.690;6.184;2023-03-14T12:05:33;7.30;99.90
53053;DHT22;38934;52.690;6.184;2023-03-14T12:13:11;7.50;99.90
53053;DHT22;38934;52.690;6.184;2023-03-14T12:18:34;7.20;99.90
53053;DHT22;38934;52.690;6.184;2023-03-14T12:21:05;7.20;99.90
53053;DHT22;38934;52.690;6.184;2023-03-14T12:28:37;7.50;99.90
53053;DHT22;38934;52.690;6.184;2023-03-14T12:39:33;8.20;99.90
53053;DHT22;38934;52.690;6.184;2023-03-14T12:42:11;7.90;99.90
53053;DHT22;38934;52.690;6.184;2023-03-14T12:44:38;8.00;99.90
53053;DHT22;38934;52.690;6.184;2023-03-14T12:49:51;8.10;99.90
53053;DHT22;38934;52.690;6.184;2023-03-14T13:00:39;8.10;99.90
53053;DHT22;38934;52.690;6.184;2023-03-14T13:03:19;7.40;99.90
53053;DHT22;38934;52.690;6.184;2023-03-14T13:05:59;7.50;99.90
53053;DHT22;38934;52.690;6.184;2023-03-14T13:08:41;7.60;99.90
53053;DHT22;38934;52.690;6.184;2023-03-14T13:11:16;7.70;99.90
53053;DHT22;38934;52.690;6.184;2023-03-14T13:13:57;7.80;99.90
53053;DHT22;38934;52.690;6.184;2023-03-14T13:16:24;7.90;99.90
53053;DHT22;38934;52.690;6.184;2023-03-14T13:19:02;7.90;99.90
53053;DHT22;38934;52.690;6.184;2023-03-14T13:21:34;7.80;99.90
53053;DHT22;38934;52.690;6.184;2023-03-14T13:24:04;7.50;99.90
53053;DHT22;38934;52.690;6.184;2023-03-14T13:26:41;7.30;99.90
53053;DHT22;38934;52.690;6.184;2023-03-14T13:29:24;7.20;99.90
53053;DHT22;38934;52.690;6.184;2023-03-14T13:31:53;7.10;99.90
53053;DHT22;38934;52.690;6.184;2023-03-14T13:34:19;7.10;99.90
53053;DHT22;38934;52.690;6.184;2023-03-14T13:36:45;7.10;99.90
53053;DHT22;38934;52.690;6.184;2023-03-14T13:39:17;7.00;99.90
53053;DHT22;38934;52.690;6.184;2023-03-14T13:41:44;6.90;99.90
53053;DHT22;38934;52.690;6.184;2023-03-14T13:44:16;6.90;99.90
53053;DHT22;38934;52.690;6.184;2023-03-14T13:46:42;7.00;99.90
53053;DHT22;38934;52.690;6.184;2023-03-14T13:49:20;7.10;99.90
53053;DHT22;38934;52.690;6.184;2023-03-14T13:51:47;7.30;99.90
53053;DHT22;38934;52.690;6.184;2023-03-14T13:54:18;7.50;99.90
53053;DHT22;38934;52.690;6.184;2023-03-14T13:56:44;7.50;99.90
53053;DHT22;38934;52.690;6.184;2023-03-14T13:59:24;7.60;99.90
53053;DHT22;38934;52.690;6.184;2023-03-14T14:01:50;7.50;99.90
53053;DHT22;38934;52.690;6.184;2023-03-14T14:04:19;7.40;99.90
53053;DHT22;38934;52.690;6.184;2023-03-14T14:06:58;7.40;99.90
53053;DHT22;38934;52.690;6.184;2023-03-14T14:09:27;7.40;99.90
53053;DHT22;38934;52.690;6.184;2023-03-14T14:11:54;7.40;99.90
53053;DHT22;38934;52.690;6.184;2023-03-14T14:14:34;7.40;99.90
53053;DHT22;38934;52.690;6.184;2023-03-14T14:17:05;7.40;99.90
53053;DHT22;38934;52.690;6.184;2023-03-14T14:19:33;7.30;99.90
53053;DHT22;38934;52.690;6.184;2023-03-14T14:21:59;7.40;99.90
53053;DHT22;38934;52.690;6.184;2023-03-14T14:24:29;7.40;99.90
53053;DHT22;38934;52.690;6.184;2023-03-14T14:29:32;7.60;99.90
53053;DHT22;38934;52.690;6.184;2023-03-14T14:34:55;7.90;99.90
53053;DHT22;38934;52.690;6.184;2023-03-14T14:37:32;7.30;99.90
53053;DHT22;38934;52.690;6.184;2023-03-14T14:42:44;7.30;99.90
53053;DHT22;38934;52.690;6.184;2023-03-14T14:45:20;7.30;99.90
53053;DHT22;38934;52.690;6.184;2023-03-14T14:47:59;7.30;97.70
53053;DHT22;38934;52.690;6.184;2023-03-14T14:56:20;7.30;99.90
53053;DHT22;38934;52.690;6.184;2023-03-14T14:58:48;7.20;99.10
53053;DHT22;38934;52.690;6.184;2023-03-14T15:01:18;7.10;99.90
53053;DHT22;38934;52.690;6.184;2023-03-14T15:03:47;7.00;99.90
53053;DHT22;38934;52.690;6.184;2023-03-14T15:06:15;7.10;99.90
53053;DHT22;38934;52.690;6.184;2023-03-14T15:08:43;7.10;99.90
53053;DHT22;38934;52.690;6.184;2023-03-14T15:11:16;7.00;99.90
53053;DHT22;38934;52.690;6.184;2023-03-14T15:13:42;6.90;99.90
53053;DHT22;38934;52.690;6.184;2023-03-14T15:16:13;6.70;99.90
53053;DHT22;38934;52.690;6.184;2023-03-14T15:18:39;6.50;99.90
53053;DHT22;38934;52.690;6.184;2023-03-14T15:21:05;6.50;99.90
53053;DHT22;38934;52.690;6.184;2023-03-14T15:23:31;6.40;99.90
53053;DHT22;38934;52.690;6.184;2023-03-14T15:25:56;6.50;99.90
53053;DHT22;38934;52.690;6.184;2023-03-14T15:28:24;6.50;99.90
53053;DHT22;38934;52.690;6.184;2023-03-14T15:30:52;6.50;99.90
53053;DHT22;38934;52.690;6.184;2023-03-14T15:33:19;6.50;99.90
53053;DHT22;38934;52.690;6.184;2023-03-14T15:35:45;6.40;99.90
53053;DHT22;38934;52.690;6.184;2023-03-14T15:38:12;6.50;99.90
53053;DHT22;38934;52.690;6.184;2023-03-14T15:40:39;6.60;99.90
53053;DHT22;38934;52.690;6.184;2023-03-14T15:43:05;6.80;99.90
53053;DHT22;38934;52.690;6.184;2023-03-14T15:45:30;6.90;99.90
53053;DHT22;38934;52.690;6.184;2023-03-14T15:47:56;7.10;99.90
53053;DHT22;38934;52.690;6.184;2023-03-14T15:50:22;7.00;99.90
53053;DHT22;38934;52.690;6.184;2023-03-14T15:52:48;7.00;99.90
53053;DHT22;38934;52.690;6.184;2023-03-14T15:55:14;7.00;99.90
53053;DHT22;38934;52.690;6.184;2023-03-14T15:57:40;6.90;99.90
53053;DHT22;38934;52.690;6.184;2023-03-14T16:00:09;6.80;99.90
53053;DHT22;38934;52.690;6.184;2023-03-14T16:02:36;6.70;99.90
53053;DHT22;38934;52.690;6.184;2023-03-14T16:05:07;6.50;99.90
53053;DHT22;38934;52.690;6.184;2023-03-14T16:07:32;6.40;99.90
53053;DHT22;38934;52.690;6.184;2023-03-14T16:09:58;6.20;99.90
53053;DHT22;38934;52.690;6.184;2023-03-14T16:12:24;6.20;99.90
53053;DHT22;38934;52.690;6.184;2023-03-14T16:14:49;6.10;99.90
53053;DHT22;38934;52.690;6.184;2023-03-14T16:17:15;6.90;99.90
53053;DHT22;38934;52.690;6.184;2023-03-14T16:19:41;6.00;99.90
53053;DHT22;38934;52.690;6.184;2023-03-14T16:22:06;6.00;99.90
53053;DHT22;38934;52.690;6.184;2023-03-14T16:24:32;6.00;99.90
53053;DHT22;38934;52.690;6.184;2023-03-14T16:26:58;5.90;99.90
53053;DHT22;38934;52.690;6.184;2023-03-14T16:29:23;5.80;99.90
53053;DHT22;38934;52.690;6.184;2023-03-14T16:31:49;5.80;99.90
53053;DHT22;38934;52.690;6.184;2023-03-14T16:34:14;5.70;99.90
53053;DHT22;38934;52.690;6.184;2023-03-14T16:36:40;5.70;99.90
53053;DHT22;38934;52.690;6.184;2023-03-14T16:39:06;5.70;99.90
53053;DHT22;38934;52.690;6.184;2023-03-14T16:41:31;5.60;99.90
53053;DHT22;38934;52.690;6.184;2023-03-14T16:43:58;5.70;99.90
53053;DHT22;38934;52.690;6.184;2023-03-14T16:46:23;5.90;99.90
53053;DHT22;38934;52.690;6.184;2023-03-14T16:48:51;5.60;99.90
53053;DHT22;38934;52.690;6.184;2023-03-14T16:51:17;5.60;99.90
53053;DHT22;38934;52.690;6.184;2023-03-14T16:53:43;5.60;99.90
53053;DHT22;38934;52.690;6.184;2023-03-14T16:56:09;5.60;99.90
53053;DHT22;38934;52.690;6.184;2023-03-14T16:58:35;5.60;99.90
53053;DHT22;38934;52.690;6.184;2023-03-14T17:01:09;6.40;99.90
53053;DHT22;38934;52.690;6.184;2023-03-14T17:03:40;5.50;99.90
53053;DHT22;38934;52.690;6.184;2023-03-14T17:06:07;5.50;99.90
53053;DHT22;38934;52.690;6.184;2023-03-14T17:08:34;5.40;99.90
53053;DHT22;38934;52.690;6.184;2023-03-14T17:11:00;5.30;99.90
53053;DHT22;38934;52.690;6.184;2023-03-14T17:13:26;5.30;99.90
53053;DHT22;38934;52.690;6.184;2023-03-14T17:15:56;5.80;99.90
53053;DHT22;38934;52.690;6.184;2023-03-14T17:18:23;5.20;99.90